Time;durP1;ratioP1;P1;durP2;ratioP2;P2;SDS_P1;SDS_P2;PMS_P1;PMS_P2;Temp;Humidity;BMP_temperature;BMP_pressure;BME280_temperature;BME280_humidity;BME280_pressure;Samples;Min_cycle;Max_cycle;Signal;HPM_P1;HPM_P2
2022/10/23 00:00:56;;;;;;;6.03;3.00;;;;;;;12.99;100.00;93066.56;4896399;29;20419;-78
2022/10/23 00:03:22;;;;;;;11.45;2.75;;;;;;;12.96;100.00;93061.84;4896613;29;20522;-78
2022/10/23 00:05:47;;;;;;;4.63;2.50;;;;;;;12.94;100.00;93057.94;4896099;29;20037;-78
2022/10/23 00:08:13;;;;;;;4.75;2.63;;;;;;;12.91;100.00;93036.44;4882515;29;20064;-78
2022/10/23 00:10:40;;;;;;;7.97;2.80;;;;;;;12.90;100.00;93028.81;4895710;29;20036;-78
2022/10/23 00:13:06;;;;;;;8.43;3.03;;;;;;;12.89;100.00;93040.41;4911866;29;20168;-78
2022/10/23 00:15:34;;;;;;;7.07;2.60;;;;;;;12.87;100.00;93045.19;4883821;29;20575;-78
2022/10/23 00:18:00;;;;;;;5.93;2.80;;;;;;;12.95;100.00;93055.03;4879173;29;20116;-78
2022/10/23 00:20:25;;;;;;;10.65;3.15;;;;;;;12.96;100.00;93064.47;4889282;29;20124;-78
2022/10/23 00:22:51;;;;;;;16.77;8.13;;;;;;;12.69;100.00;93052.78;4878869;29;20040;-78
2022/10/23 00:25:17;;;;;;;12.07;4.80;;;;;;;12.55;100.00;93036.19;4878946;29;20220;-77
2022/10/23 00:27:43;;;;;;;8.02;3.78;;;;;;;12.49;100.00;93037.31;4878700;29;20052;-78
2022/10/23 00:30:10;;;;;;;6.75;3.70;;;;;;;12.50;100.00;93038.88;4893567;29;20033;-78
2022/10/23 00:32:36;;;;;;;9.90;3.58;;;;;;;12.51;100.00;93050.94;4891922;29;20091;-79
2022/10/23 00:35:01;;;;;;;10.43;3.78;;;;;;;12.50;100.00;93058.03;4897199;29;20092;-78
2022/10/23 00:37:27;;;;;;;8.38;3.30;;;;;;;12.51;100.00;93050.94;4895977;29;20083;-78
2022/10/23 00:39:52;;;;;;;9.35;3.67;;;;;;;12.51;100.00;93058.81;4880210;29;20502;-77
2022/10/23 00:42:20;;;;;;;6.75;3.63;;;;;;;12.51;100.00;93056.19;4892324;29;20040;-78
2022/10/23 00:44:45;;;;;;;6.88;3.53;;;;;;;12.50;100.00;93052.03;4906187;29;20039;-78
2022/10/23 00:47:12;;;;;;;8.30;3.55;;;;;;;12.48;100.00;93056.78;4861512;29;20477;-77
2022/10/23 00:49:38;;;;;;;10.23;3.70;;;;;;;12.53;100.00;93069.81;4892352;29;20049;-76
2022/10/23 00:52:08;;;;;;;11.57;3.72;;;;;;;12.57;100.00;93070.06;4901250;29;20048;-79
2022/10/23 00:54:38;;;;;;;11.68;3.20;;;;;;;12.64;100.00;93065.22;4895030;29;20491;-78
2022/10/23 00:57:06;;;;;;;12.38;3.40;;;;;;;12.59;100.00;93058.19;4895444;29;20487;-78
2022/10/23 00:59:33;;;;;;;8.20;3.28;;;;;;;12.53;100.00;93054.06;4896670;29;20443;-77
2022/10/23 01:01:59;;;;;;;7.55;3.38;;;;;;;12.54;100.00;93034.63;4876572;29;20184;-77
2022/10/23 01:04:26;;;;;;;17.15;4.03;;;;;;;12.55;100.00;93041.44;4899384;29;20029;-77
2022/10/23 01:07:04;;;;;;;11.32;3.97;;;;;;;12.58;100.00;93040.84;4878969;29;20651;-77
2022/10/23 01:09:53;;;;;;;8.18;3.20;;;;;;;12.58;100.00;93047.97;4911078;29;20511;-77
2022/10/23 01:12:49;;;;;;;12.32;3.35;;;;;;;12.57;100.00;93059.53;4895506;29;20116;-77
2022/10/23 01:15:44;;;;;;;825.10;23.98;;;;;;;12.56;100.00;93060.59;4894201;29;20033;-76
2022/10/23 01:18:24;;;;;;;1999.90;61.50;;;;;;;12.29;100.00;93062.78;4888356;29;20537;-78
2022/10/23 01:21:22;;;;;;;1407.47;45.97;;;;;;;12.12;100.00;93059.84;4910851;29;20210;-78
2022/10/23 01:24:13;;;;;;;331.40;10.00;;;;;;;12.14;100.00;93057.72;4894027;29;20040;-76
2022/10/23 01:26:55;;;;;;;11.55;5.97;;;;;;;12.13;100.00;93056.16;4876445;29;20468;-76
2022/10/23 01:29:44;;;;;;;10.10;4.97;;;;;;;12.16;100.00;93047.72;4877190;29;20044;-77
2022/10/23 01:32:49;;;;;;;11.15;4.90;;;;;;;12.22;100.00;93049.22;4891946;29;20037;-77
2022/10/23 01:35:32;;;;;;;11.93;4.15;;;;;;;12.22;100.00;93067.59;4883840;29;20190;-77
2022/10/23 01:38:30;;;;;;;11.85;5.72;;;;;;;12.29;100.00;93083.78;4894853;29;20028;-77
2022/10/23 01:41:16;;;;;;;85.57;6.03;;;;;;;12.32;100.00;93073.78;4891680;29;20037;-77
2022/10/23 01:44:03;;;;;;;11.40;4.10;;;;;;;12.25;100.00;93068.88;4875926;29;20037;-76
2022/10/23 01:46:36;;;;;;;11.25;4.18;;;;;;;12.25;100.00;93077.53;4880865;29;20049;-77
2022/10/23 01:49:06;;;;;;;;;;;;;;;12.24;100.00;93073.34;4861411;29;20049;-77
2022/10/23 01:51:35;;;;;;;9.38;3.80;;;;;;;12.23;100.00;93069.16;4906280;29;19919;-77
2022/10/23 01:54:08;;;;;;;10.43;5.00;;;;;;;12.26;100.00;93060.72;4894672;29;20456;-78
2022/10/23 01:56:38;;;;;;;10.10;4.93;;;;;;;12.25;100.00;93067.03;4895204;29;20033;-77
2022/10/23 01:59:13;;;;;;;11.75;4.45;;;;;;;12.28;100.00;93066.47;4895092;29;20024;-77
2022/10/23 02:01:45;;;;;;;8.43;4.15;;;;;;;12.33;100.00;93065.63;4879675;29;20487;-77
2022/10/23 02:04:16;;;;;;;10.32;4.30;;;;;;;12.28;100.00;93055.97;4910835;29;20473;-77
2022/10/23 02:06:42;;;;;;;8.98;4.18;;;;;;;12.27;100.00;93046.53;4894359;29;20052;-76
2022/10/23 02:09:07;;;;;;;12.40;4.82;;;;;;;12.29;100.00;93043.63;4910293;29;20040;-77
2022/10/23 02:11:40;;;;;;;13.18;4.70;;;;;;;12.32;100.00;93050.16;4894789;29;20478;-79
2022/10/23 02:14:12;;;;;;;11.90;4.50;;;;;;;12.21;100.00;93047.66;4910368;29;20040;-77
2022/10/23 02:16:45;;;;;;;21.63;4.45;;;;;;;12.19;100.00;93049.78;4890112;29;20029;-78
2022/10/23 02:19:32;;;;;;;13.18;4.72;;;;;;;12.16;100.00;93054.81;4910504;29;20036;-78
2022/10/23 02:22:19;;;;;;;11.63;5.28;;;;;;;12.14;100.00;93044.59;4910092;29;20041;-77
2022/10/23 02:24:50;;;;;;;14.90;5.38;;;;;;;12.23;100.00;93056.03;4913026;29;20029;-77
2022/10/23 02:27:22;;;;;;;11.85;4.60;;;;;;;12.19;100.00;93041.13;4911772;29;20071;-77
2022/10/23 02:29:56;;;;;;;12.40;5.32;;;;;;;12.18;100.00;93039.56;4913881;29;20555;-77
2022/10/23 02:32:25;;;;;;;11.93;5.60;;;;;;;12.22;100.00;93043.97;4913604;29;20045;-77
2022/10/23 02:34:50;;;;;;;12.95;5.10;;;;;;;12.23;100.00;93048.16;4913771;29;20040;-77
2022/10/23 02:37:16;;;;;;;13.07;5.00;;;;;;;12.23;100.00;93050.00;4882067;29;20051;-78
2022/10/23 02:39:42;;;;;;;12.63;5.13;;;;;;;12.23;100.00;93048.16;4897840;29;20554;-78
2022/10/23 02:42:19;;;;;;;11.30;5.20;;;;;;;12.20;100.00;93040.84;4897950;29;20525;-77
2022/10/23 02:44:57;;;;;;;10.20;4.80;;;;;;;12.25;100.00;93035.53;4897948;29;20029;-77
2022/10/23 02:47:55;;;;;;;13.32;5.20;;;;;;;12.25;100.00;93035.53;4913858;29;20063;-77
2022/10/23 02:50:41;;;;;;;13.93;5.28;;;;;;;12.36;100.00;93030.13;4879535;29;20040;-77
2022/10/23 02:53:51;;;;;;;12.50;6.07;;;;;;;12.32;100.00;93037.81;4879636;29;20040;-77
2022/10/23 02:56:36;;;;;;;16.15;5.13;;;;;;;12.33;100.00;93030.72;4863917;29;20052;-76
2022/10/23 02:59:25;;;;;;;15.77;5.90;;;;;;;12.34;100.00;93034.88;4901363;29;20056;-77
2022/10/23 03:02:01;;;;;;;27.40;6.57;;;;;;;12.35;100.00;93031.22;4897537;29;20447;-77
2022/10/23 03:04:28;;;;;;;15.50;5.53;;;;;;;12.37;100.00;93034.34;4897852;29;20080;-77
2022/10/23 03:06:54;;;;;;;14.15;6.07;;;;;;;12.36;100.00;93027.50;4913669;29;20055;-77
2022/10/23 03:09:20;;;;;;;15.68;6.57;;;;;;;12.37;100.00;93029.88;4898171;29;20212;-77
2022/10/23 03:11:45;;;;;;;20.50;6.15;;;;;;;12.38;100.00;93043.75;4899382;29;20067;-77
2022/10/23 03:14:13;;;;;;;20.63;6.50;;;;;;;12.41;100.00;93040.59;4882450;29;20081;-77
2022/10/23 03:16:39;;;;;;;22.65;6.35;;;;;;;12.39;100.00;93034.84;4898260;29;20040;-77
2022/10/23 03:19:05;;;;;;;19.40;6.47;;;;;;;12.42;100.00;93037.66;4899040;29;20072;-77
2022/10/23 03:21:30;;;;;;;14.90;6.60;;;;;;;12.44;100.00;93029.50;4898094;29;20092;-77
2022/10/23 03:23:57;;;;;;;19.42;6.82;;;;;;;12.44;100.00;93032.91;4913769;29;20037;-77
2022/10/23 03:26:31;;;;;;;15.50;6.07;;;;;;;12.46;100.00;93024.75;4913203;29;20171;-76
2022/10/23 03:28:57;;;;;;;22.30;7.80;;;;;;;12.47;100.00;93031.56;4897394;29;20087;-77
2022/10/23 03:31:23;;;;;;;15.73;6.53;;;;;;;12.55;100.00;93033.56;4881089;29;20043;-77
2022/10/23 03:33:53;;;;;;;16.67;6.68;;;;;;;12.61;100.00;93035.06;4897187;29;20048;-77
2022/10/23 03:36:20;;;;;;;15.13;6.63;;;;;;;12.55;100.00;93022.28;4911809;29;20044;-76
2022/10/23 03:38:46;;;;;;;16.85;6.80;;;;;;;12.54;100.00;93025.94;4896594;29;20479;-77
2022/10/23 03:41:11;;;;;;;16.95;6.78;;;;;;;12.50;100.00;93021.28;4909604;29;20477;-78
2022/10/23 03:43:37;;;;;;;16.80;6.72;;;;;;;12.52;100.00;93026.25;4896844;29;20603;-77
2022/10/23 03:46:07;;;;;;;19.05;7.38;;;;;;;12.53;100.00;93030.44;4896925;29;20131;-77
2022/10/23 03:48:36;;;;;;;18.55;7.40;;;;;;;12.52;100.00;93031.50;4884221;29;20452;-77
2022/10/23 03:51:03;;;;;;;17.02;7.40;;;;;;;12.54;100.00;93031.22;4897218;29;20034;-77
2022/10/23 03:53:29;;;;;;;16.88;6.57;;;;;;;12.55;100.00;93030.16;4896954;29;20045;-77
2022/10/23 03:55:55;;;;;;;21.27;7.30;;;;;;;12.54;100.00;93024.13;4896753;29;20104;-77
2022/10/23 03:58:20;;;;;;;17.95;7.20;;;;;;;12.57;100.00;93023.56;4881072;29;20032;-77
2022/10/23 04:00:46;;;;;;;22.85;8.63;;;;;;;12.59;100.00;93031.16;4896714;29;20045;-77
2022/10/23 04:03:11;;;;;;;17.45;7.88;;;;;;;12.61;100.00;93031.63;4895415;29;20050;-77
2022/10/23 04:05:37;;;;;;;19.60;8.40;;;;;;;12.62;100.00;93035.81;4912201;29;20020;-77
2022/10/23 04:08:03;;;;;;;20.35;8.25;;;;;;;12.62;100.00;93047.09;4896060;29;20056;-76
2022/10/23 04:10:31;;;;;;;114.20;9.73;;;;;;;12.67;100.00;93054.91;4896538;29;20036;-77
2022/10/23 04:12:56;;;;;;;17.75;7.97;;;;;;;12.65;100.00;93045.75;4912424;29;20043;-77
2022/10/23 04:15:22;;;;;;;19.73;8.25;;;;;;;12.61;100.00;93040.31;4880573;29;20049;-77
2022/10/23 04:17:48;;;;;;;17.77;8.50;;;;;;;12.60;100.00;93043.97;4893282;29;20032;-77
2022/10/23 04:20:13;;;;;;;31.58;10.82;;;;;;;12.60;100.00;93043.22;4911183;29;20380;-77
2022/10/23 04:22:39;;;;;;;34.00;11.63;;;;;;;12.62;100.00;93041.09;4896137;29;20436;-76
2022/10/23 04:25:05;;;;;;;31.75;11.82;;;;;;;12.63;100.00;93038.19;4896966;29;20522;-77
2022/10/23 04:27:33;;;;;;;28.80;11.88;;;;;;;12.63;100.00;93027.69;4911514;29;20045;-77
2022/10/23 04:29:59;;;;;;;35.63;12.60;;;;;;;12.67;100.00;93041.78;4895587;29;20407;-77
2022/10/23 04:32:26;;;;;;;27.17;10.73;;;;;;;12.68;100.00;93034.69;4895689;29;20075;-77
2022/10/23 04:34:51;;;;;;;19.90;8.73;;;;;;;12.72;100.00;93038.28;4911120;29;20044;-77
2022/10/23 04:37:17;;;;;;;21.27;9.73;;;;;;;12.71;100.00;93050.66;4911329;29;20089;-77
2022/10/23 04:39:43;;;;;;;24.92;9.57;;;;;;;12.73;100.00;93062.72;4880021;29;20399;-77
2022/10/23 04:42:12;;;;;;;568.53;21.02;;;;;;;12.84;100.00;93061.53;4880559;29;20079;-77
2022/10/23 04:44:38;;;;;;;19.80;7.78;;;;;;;12.68;100.00;93056.47;4910323;29;20028;-77
2022/10/23 04:47:03;;;;;;;22.20;9.25;;;;;;;12.60;100.00;93054.50;4894278;29;20044;-77
2022/10/23 04:49:29;;;;;;;19.17;8.68;;;;;;;12.59;100.00;93058.19;4895299;29;20522;-77
2022/10/23 04:52:13;;;;;;;26.95;9.70;;;;;;;12.58;100.00;93055.84;4878603;29;20056;-77
2022/10/23 04:55:08;;;;;;;35.67;10.18;;;;;;;12.60;100.00;93058.97;4864910;29;20142;-77
2022/10/23 04:57:51;;;;;;;30.42;11.35;;;;;;;12.59;100.00;93047.69;4895475;29;20127;-77
2022/10/23 05:00:21;;;;;;;29.77;12.05;;;;;;;12.62;100.00;93055.00;4910883;29;20451;-77
2022/10/23 05:02:53;;;;;;;27.40;12.20;;;;;;;12.66;100.00;93058.59;4895215;29;20040;-77
2022/10/23 05:05:20;;;;;;;26.38;10.75;;;;;;;12.66;100.00;93057.84;4895362;29;20041;-77
2022/10/23 05:08:08;;;;;;;29.80;11.18;;;;;;;12.68;100.00;93053.84;4897047;29;20476;-77
2022/10/23 05:10:41;;;;;;;24.88;11.50;;;;;;;12.68;100.00;93045.22;4896494;29;20036;-77
2022/10/23 05:13:15;;;;;;;30.77;11.50;;;;;;;12.65;100.00;93043.13;4876498;29;20040;-77
2022/10/23 05:15:41;;;;;;;31.58;11.77;;;;;;;12.67;100.00;93044.41;4880876;29;20047;-76
2022/10/23 05:18:39;;;;;;;36.65;13.38;;;;;;;12.68;100.00;93040.72;4895439;29;20032;-77
2022/10/23 05:21:20;;;;;;;29.45;11.77;;;;;;;12.67;100.00;93049.66;4896585;29;20179;-77
2022/10/23 05:23:48;;;;;;;25.52;10.95;;;;;;;12.68;100.00;93056.47;4876753;29;20037;-77
2022/10/23 05:26:16;;;;;;;32.20;12.23;;;;;;;12.70;100.00;93054.34;4886728;29;20112;-76
2022/10/23 05:28:44;;;;;;;29.42;11.48;;;;;;;12.72;100.00;93046.16;4882558;29;20047;-77
2022/10/23 05:31:14;;;;;;;28.10;12.20;;;;;;;12.70;100.00;93038.59;4876668;29;20111;-77
2022/10/23 05:33:42;;;;;;;29.80;11.07;;;;;;;12.73;100.00;93046.97;4888441;29;20503;-77
2022/10/23 05:36:11;;;;;;;33.33;12.55;;;;;;;12.74;100.00;93048.53;4892513;29;20116;-77
2022/10/23 05:38:37;;;;;;;32.08;12.45;;;;;;;12.73;100.00;93041.72;4879305;29;20049;-77
2022/10/23 05:41:47;;;;;;;28.20;11.85;;;;;;;12.76;100.00;93046.41;4892417;29;20044;-77
2022/10/23 05:44:18;;;;;;;36.65;12.30;;;;;;;12.76;100.00;93051.66;4877697;29;20067;-77
2022/10/23 05:46:59;;;;;;;33.75;12.52;;;;;;;12.77;100.00;93053.22;4883149;29;20411;-77
2022/10/23 05:49:53;;;;;;;24.85;10.65;;;;;;;12.74;100.00;93053.78;4895975;29;20055;-78
2022/10/23 05:52:38;;;;;;;21.00;9.13;;;;;;;12.69;100.00;93058.03;4893508;29;20135;-79
2022/10/23 05:55:35;;;;;;;24.85;9.82;;;;;;;12.65;100.00;93057.06;4892795;29;20053;-78
2022/10/23 05:58:30;;;;;;;26.33;9.27;;;;;;;12.56;100.00;93042.22;4873404;29;20067;-79
2022/10/23 06:01:14;;;;;;;28.38;9.10;;;;;;;12.67;100.00;93059.38;4898376;29;20051;-79
2022/10/23 06:04:04;;;;;;;28.27;10.32;;;;;;;12.68;100.00;93064.38;4887260;29;20033;-79
2022/10/23 06:06:47;;;;;;;31.25;11.18;;;;;;;12.69;100.00;93062.50;4898441;29;20080;-79
2022/10/23 06:09:14;;;;;;;26.67;11.05;;;;;;;12.71;100.00;93068.25;4897087;29;20036;-79
2022/10/23 06:11:40;;;;;;;20.73;9.48;;;;;;;12.74;100.00;93066.91;4899799;29;20036;-78
2022/10/23 06:14:11;;;;;;;22.08;10.23;;;;;;;12.70;100.00;93067.50;4874122;29;20049;-78
2022/10/23 06:16:37;;;;;;;22.38;10.10;;;;;;;12.70;100.00;93066.72;4901447;29;20048;-78
2022/10/23 06:19:03;;;;;;;25.90;9.70;;;;;;;12.69;100.00;93073.78;4912646;29;20415;-78
2022/10/23 06:21:29;;;;;;;25.55;11.02;;;;;;;12.74;100.00;93074.78;4890294;29;20045;-78
2022/10/23 06:23:55;;;;;;;29.05;10.38;;;;;;;12.76;100.00;93075.28;4878628;29;20052;-77
2022/10/23 06:26:49;;;;;;;36.47;10.30;;;;;;;12.81;100.00;93097.03;4887624;29;20052;-78
2022/10/23 06:29:35;;;;;;;29.65;7.90;;;;;;;12.84;100.00;93106.19;4900941;29;20053;-78
2022/10/23 06:32:19;;;;;;;11.73;4.50;;;;;;;12.74;100.00;93103.69;4865117;29;20040;-79
2022/10/23 06:34:58;;;;;;;10.27;4.07;;;;;;;12.69;100.00;93104.53;4916200;29;20036;-78
2022/10/23 06:37:44;;;;;;;16.55;4.88;;;;;;;12.66;100.00;93098.00;4899149;29;20459;-78
2022/10/23 06:40:15;;;;;;;17.80;5.68;;;;;;;12.66;100.00;93090.13;4905825;29;20166;-80
2022/10/23 06:42:56;;;;;;;20.40;6.75;;;;;;;12.69;100.00;93094.81;4910242;29;20456;-79
2022/10/23 06:45:32;;;;;;;21.13;7.22;;;;;;;12.73;100.00;93102.13;4896505;29;20033;-77
2022/10/23 06:48:10;;;;;;;18.23;7.00;;;;;;;12.73;100.00;93104.75;4893588;29;20051;-81
2022/10/23 06:51:10;;;;;;;17.80;6.97;;;;;;;12.77;100.00;93111.78;4886728;29;20052;-79
2022/10/23 06:53:43;;;;;;;19.10;7.70;;;;;;;12.78;100.00;93107.31;4900211;29;20032;-79
2022/10/23 06:56:29;;;;;;;18.90;7.53;;;;;;;12.77;100.00;93116.28;4913662;29;20462;-80
2022/10/23 06:58:55;;;;;;;20.40;8.10;;;;;;;12.79;100.00;93125.44;4899374;29;20032;-78
2022/10/23 07:01:21;;;;;;;21.52;8.40;;;;;;;12.82;100.00;93114.34;4901344;29;20047;-78
2022/10/23 07:03:47;;;;;;;32.25;11.20;;;;;;;12.85;100.00;93103.25;4894533;29;20494;-79
2022/10/23 07:06:15;;;;;;;34.92;11.20;;;;;;;12.93;100.00;93115.00;4888261;29;20032;-77
2022/10/23 07:08:41;;;;;;;26.75;11.20;;;;;;;12.98;100.00;93122.78;4883560;29;20063;-80
2022/10/23 07:11:26;;;;;;;26.25;11.10;;;;;;;12.98;100.00;93117.53;4903667;29;20052;-79
2022/10/23 07:13:54;;;;;;;41.75;12.18;;;;;;;13.00;100.00;93131.16;4895401;29;20052;-79
2022/10/23 07:16:22;;;;;;;29.58;11.45;;;;;;;13.00;100.00;93131.16;4893739;29;20049;-79
2022/10/23 07:18:57;;;;;;;33.58;11.15;;;;;;;13.02;100.00;93134.31;4890991;29;20055;-79
2022/10/23 07:21:28;;;;;;;29.02;11.32;;;;;;;13.02;100.00;93133.53;4891938;29;20055;-78
2022/10/23 07:24:02;;;;;;;36.75;12.48;;;;;;;13.02;100.00;93134.31;4900091;29;20032;-78
2022/10/23 07:26:28;;;;;;;31.30;11.18;;;;;;;13.02;100.00;93133.53;4893724;29;20414;-77
2022/10/23 07:28:54;;;;;;;35.40;12.02;;;;;;;13.02;100.00;93128.28;4897313;29;20040;-78
2022/10/23 07:31:23;;;;;;;39.42;11.65;;;;;;;13.03;100.00;93138.47;4905151;29;20044;-78
2022/10/23 07:34:24;;;;;;;31.13;11.60;;;;;;;13.06;100.00;93151.06;4914514;29;20706;-79
2022/10/23 07:37:07;;;;;;;;;;;;;;;13.19;100.00;93159.28;4881386;29;20057;-78
2022/10/23 07:39:32;;;;;;;1260.45;39.60;;;;;;;13.09;100.00;93153.13;4892073;29;19919;-78
2022/10/23 07:41:59;;;;;;;682.40;20.27;;;;;;;12.90;100.00;93147.06;4895667;29;20495;-78
2022/10/23 07:44:25;;;;;;;11.93;5.00;;;;;;;12.85;100.00;93150.53;4911019;29;20060;-77
2022/10/23 07:46:50;;;;;;;16.15;7.10;;;;;;;12.85;100.00;93166.31;4892626;29;20040;-78
2022/10/23 07:49:16;;;;;;;13.73;6.15;;;;;;;12.84;100.00;93153.47;4880094;29;20076;-78
2022/10/23 07:51:42;;;;;;;13.98;6.55;;;;;;;12.85;100.00;93163.69;4897170;29;20521;-80
2022/10/23 07:54:10;;;;;;;21.70;7.03;;;;;;;12.87;100.00;93156.31;4901506;29;20518;-78
2022/10/23 07:56:58;;;;;;;23.05;7.80;;;;;;;12.91;100.00;93161.78;4881247;29;20495;-78
2022/10/23 07:59:33;;;;;;;24.50;7.95;;;;;;;12.94;100.00;93163.06;4895081;29;20071;-80
2022/10/23 08:02:01;;;;;;;23.02;8.32;;;;;;;12.90;100.00;93158.38;4901574;29;20040;-80
2022/10/23 08:04:32;;;;;;;23.25;9.35;;;;;;;12.98;100.00;93167.47;4893276;29;20609;-79
2022/10/23 08:07:03;;;;;;;36.53;10.32;;;;;;;13.01;100.00;93174.00;4912268;29;20049;-80
2022/10/23 08:09:36;;;;;;;;;;;;;;;13.00;100.00;93173.22;4891230;29;20048;-80
2022/10/23 08:12:02;;;;;;;27.63;10.95;;;;;;;12.99;100.00;93174.31;4907296;29;20285;-79
2022/10/23 08:14:28;;;;;;;30.25;9.30;;;;;;;13.00;100.00;93165.34;4900998;29;20124;-80
2022/10/23 08:16:54;;;;;;;21.92;9.30;;;;;;;13.01;100.00;93163.47;4913488;29;20044;-82
2022/10/23 08:19:52;;;;;;;223.88;21.38;;;;;;;13.00;100.00;93170.59;4884998;29;20150;-79
2022/10/23 08:22:18;;;;;;;621.05;43.53;;;;;;;13.00;100.00;93173.22;4904570;29;20407;-80
2022/10/23 08:24:45;;;;;;;432.40;17.63;;;;;;;13.20;100.00;93187.16;4906274;29;20048;-80
2022/10/23 08:27:10;;;;;;;577.30;19.83;;;;;;;12.93;100.00;93188.56;4909166;29;20036;-79
2022/10/23 08:29:41;;;;;;;24.40;7.80;;;;;;;12.87;100.00;93194.94;4912062;29;20038;-80
2022/10/23 08:32:07;;;;;;;17.10;7.15;;;;;;;12.85;100.00;93207.56;4915198;29;20045;-79
2022/10/23 08:34:46;;;;;;;107.68;44.38;;;;;;;12.80;100.00;93194.50;4888419;29;20119;-77
2022/10/23 08:37:12;;;;;;;60.40;27.73;;;;;;;12.77;100.00;93184.56;4895475;29;20567;-80
2022/10/23 08:39:38;;;;;;;45.03;23.08;;;;;;;12.80;100.00;93194.50;4894102;29;20039;-79
2022/10/23 08:42:19;;;;;;;22.02;9.70;;;;;;;12.80;100.00;93194.50;4904904;29;20036;-78
2022/10/23 08:45:01;;;;;;;19.80;9.20;;;;;;;12.83;100.00;93194.72;4915754;29;20060;-79
2022/10/23 08:47:40;;;;;;;22.17;9.57;;;;;;;12.90;100.00;93189.13;4895346;29;20063;-78
2022/10/23 08:50:24;;;;;;;24.75;9.05;;;;;;;12.94;100.00;93186.72;4900202;29;20040;-78
2022/10/23 08:53:20;;;;;;;22.73;10.07;;;;;;;12.97;100.00;93181.69;4891743;29;20060;-80
2022/10/23 08:55:58;;;;;;;25.67;11.35;;;;;;;13.00;100.00;93183.72;4895195;29;20045;-79
2022/10/23 08:58:38;;;;;;;21.33;10.43;;;;;;;13.02;100.00;93186.88;4893412;29;20051;-81
2022/10/23 09:01:40;;;;;;;23.05;9.05;;;;;;;13.05;100.00;93196.78;4917760;29;20071;-80
2022/10/23 09:04:08;;;;;;;;;;;;;;;13.12;100.00;93185.94;4875371;29;20044;-79
2022/10/23 09:06:46;;;;;;;21.95;10.50;;;;;;;13.16;100.00;93189.56;4898455;29;19915;-78
2022/10/23 09:09:41;;;;;;;443.33;33.30;;;;;;;13.12;100.00;93181.44;4908041;29;20144;-80
2022/10/23 09:12:06;;;;;;;84.53;44.83;;;;;;;13.11;100.00;93185.16;4892245;29;20476;-79
2022/10/23 09:14:50;;;;;;;68.25;37.80;;;;;;;13.09;100.00;93191.78;4895113;29;20124;-79
2022/10/23 09:17:28;;;;;;;61.33;28.38;;;;;;;13.04;100.00;93195.25;4898270;29;20036;-80
2022/10/23 09:20:23;;;;;;;81.80;35.85;;;;;;;13.07;100.00;93196.53;4887715;29;20032;-79
2022/10/23 09:22:54;;;;;;;52.53;21.23;;;;;;;13.16;100.00;93186.94;4895493;29;20502;-80
2022/10/23 09:25:30;;;;;;;42.25;19.00;;;;;;;13.25;100.00;93190.47;4908091;29;20113;-80
2022/10/23 09:27:59;;;;;;;40.25;17.17;;;;;;;13.33;100.00;93199.63;4897073;29;20051;-80
2022/10/23 09:30:26;;;;;;;50.40;16.60;;;;;;;13.37;100.00;93203.22;4894854;29;20047;-80
2022/10/23 09:32:51;;;;;;;56.65;23.23;;;;;;;13.43;100.00;93204.72;4899643;29;20032;-79
2022/10/23 09:35:26;;;;;;;191.75;23.55;;;;;;;13.49;100.00;93195.69;4897319;29;20122;-79
2022/10/23 09:37:52;;;;;;;461.00;17.92;;;;;;;13.32;100.00;93205.94;4898159;29;20081;-79
2022/10/23 09:40:37;;;;;;;71.28;11.13;;;;;;;13.19;100.00;93206.59;4897175;29;20040;-80
2022/10/23 09:43:13;;;;;;;256.88;82.00;;;;;;;13.15;100.00;93200.34;4897024;29;20467;-82
2022/10/23 09:45:41;;;;;;;43.92;17.60;;;;;;;13.12;100.00;93207.72;4906921;29;20036;-77
2022/10/23 09:48:27;;;;;;;220.73;68.25;;;;;;;13.01;100.00;93208.94;4909232;29;20407;-82
2022/10/23 09:50:57;;;;;;;118.97;42.97;;;;;;;13.01;100.00;93208.94;4920647;29;20060;-79
2022/10/23 09:53:31;;;;;;;37.80;16.17;;;;;;;13.05;100.00;93215.19;4899263;29;20040;-81
2022/10/23 09:56:18;;;;;;;36.80;14.88;;;;;;;13.15;100.00;93205.59;4895446;29;20040;-83
2022/10/23 09:59:21;;;;;;;29.27;12.73;;;;;;;13.28;100.00;93203.09;4896779;29;20037;-80
2022/10/23 10:01:46;;;;;;;;;;;;;;;13.43;100.00;93207.34;4884925;29;20044;-78
2022/10/23 10:04:44;;;;;;;36.22;14.90;;;;;;;13.56;100.00;93218.22;4886980;29;20006;-79
2022/10/23 10:07:37;;;;;;;36.22;14.88;;;;;;;13.61;100.00;93210.25;4895794;29;20144;-79
2022/10/23 10:10:06;;;;;;;;;;;;;;;13.64;100.00;93220.19;4885569;29;20056;-79
2022/10/23 10:12:33;;;;;;;38.00;15.10;;;;;;;13.69;100.00;93209.56;4891102;29;20421;-79
2022/10/23 10:15:25;;;;;;;36.97;14.25;;;;;;;13.89;100.00;93213.75;4899355;29;20127;-79
2022/10/23 10:18:00;;;;;;;32.15;12.50;;;;;;;14.21;100.00;93214.78;4896519;29;20033;-78
2022/10/23 10:21:03;;;;;;;312.73;74.45;;;;;;;14.44;100.00;93208.56;4892314;29;20697;-78
2022/10/23 10:23:44;;;;;;;45.65;20.65;;;;;;;14.30;100.00;93207.78;4891482;29;20044;-79
2022/10/23 10:26:31;;;;;;;35.97;16.40;;;;;;;14.15;100.00;93208.84;4901695;29;20044;-79
2022/10/23 10:29:24;;;;;;;61.55;25.90;;;;;;;14.13;100.00;93203.06;4898617;29;20127;-79
2022/10/23 10:32:08;;;;;;;42.35;17.42;;;;;;;14.10;100.00;93206.31;4882986;29;20041;-78
2022/10/23 10:34:46;;;;;;;48.13;17.55;;;;;;;14.13;100.00;93208.34;4886257;29;20072;-79
2022/10/23 10:37:27;;;;;;;49.63;18.58;;;;;;;14.22;100.00;93206.59;4897754;29;20028;-80
2022/10/23 10:40:25;;;;;;;88.20;29.98;;;;;;;14.35;100.00;93210.34;4888850;29;20041;-81
2022/10/23 10:43:18;;;;;;;47.95;15.20;;;;;;;14.44;100.00;93199.91;4901828;29;20389;-83
2022/10/23 10:45:55;;;;;;;41.80;15.05;;;;;;;14.54;100.00;93197.88;4907946;29;20037;-79
2022/10/23 10:48:37;;;;;;;42.63;16.58;;;;;;;14.61;100.00;93200.09;4884011;29;20048;-78
2022/10/23 10:51:38;;;;;;;62.40;25.05;;;;;;;14.71;100.00;93186.75;4889878;29;20055;-78
2022/10/23 10:54:06;;;;;;;67.68;28.83;;;;;;;14.89;100.00;93192.19;4895302;29;20037;-81
2022/10/23 10:56:37;;;;;;;52.22;15.68;;;;;;;14.91;100.00;93190.06;4901816;29;20503;-79
2022/10/23 10:59:26;;;;;;;134.18;49.55;;;;;;;14.98;100.00;93193.06;4897979;29;20040;-79
2022/10/23 11:01:57;;;;;;;56.97;21.33;;;;;;;15.05;100.00;93184.75;4897732;29;20032;-77
2022/10/23 11:04:50;;;;;;;51.43;15.80;;;;;;;15.06;100.00;93175.75;4897087;29;20566;-80
2022/10/23 11:07:27;;;;;;;45.92;16.35;;;;;;;15.01;100.00;93175.88;4900450;29;20048;-83
2022/10/23 11:09:53;;;;;;;46.90;16.10;;;;;;;14.97;100.00;93183.56;4918328;29;20036;-80
2022/10/23 11:12:23;;;;;;;42.30;15.07;;;;;;;14.92;100.00;93186.31;4898908;29;20029;-79
2022/10/23 11:14:49;;;;;;;46.80;15.65;;;;;;;14.85;100.00;93180.69;4895996;29;20046;-80
2022/10/23 11:17:26;;;;;;;676.65;36.97;;;;;;;14.90;100.00;93177.94;4906978;29;20047;-80
2022/10/23 11:20:09;;;;;;;834.75;36.95;;;;;;;14.54;100.00;93186.53;4887474;29;20075;-76
2022/10/23 11:22:45;;;;;;;257.40;21.15;;;;;;;14.39;100.00;93179.72;4895576;29;20506;-76
2022/10/23 11:25:20;;;;;;;106.55;38.60;;;;;;;14.28;100.00;93173.84;4874559;29;20127;-77
2022/10/23 11:28:05;;;;;;;146.60;46.63;;;;;;;14.10;100.00;93177.34;4896031;29;20032;-78
2022/10/23 11:30:50;;;;;;;58.78;24.15;;;;;;;14.03;100.00;93180.34;4912082;29;20032;-79
2022/10/23 11:33:43;;;;;;;247.77;70.65;;;;;;;14.07;100.00;93176.06;4908936;29;20036;-79
2022/10/23 11:36:17;;;;;;;160.45;49.15;;;;;;;13.94;100.00;93184.72;4895915;29;20068;-78
2022/10/23 11:38:47;;;;;;;60.28;23.85;;;;;;;13.98;100.00;93177.00;4895148;29;20032;-79
2022/10/23 11:41:33;;;;;;;51.65;21.27;;;;;;;14.04;100.00;93167.97;4905519;29;20036;-81
2022/10/23 11:44:02;;;;;;;53.55;21.67;;;;;;;14.13;100.00;93166.22;4901496;29;20032;-80
2022/10/23 11:46:37;;;;;;;46.83;17.58;;;;;;;14.25;100.00;93161.28;4917916;29;20096;-81
2022/10/23 11:49:04;;;;;;;52.08;17.40;;;;;;;14.38;100.00;93159.69;4897756;29;20048;-78